Città:
 IT 
 EN 
 FR 
 DE 
 ES 

Dati meteo attuali Milano

Datameteo.com - Informazione e servizi avanzati per la meteorologia,la nautica e la protezione civile
Milano / Linate, Italy
Alba: 5:29 AM UTC1
Tramonto: 7:13 PM UTC1
 Lat: 45.42N, Lon: 9.27E
ICAO Used: LIML
Condizioni Meteo Attuali Aggiornate: 18.04.2024 alle 21:20 UTC
Quasi Sereno
Quasi Sereno
Sereno
Quasi Sereno
Temp: 8°C
Umidita': 81%
Direz/Vel. Vento: variabile 2 / KT raffiche
Pressione: 1015 hPa
Punto di rugiada: 5°C
Temperatura percepita: 7°C
Visibilitą: >10 KM (ottima)
Temperatura percepita in
presenza di vento (Wind Chill)
:
N/D
T. max (ultime 24 ore): 15°C
T. min (ultime 24 ore): 7°C


METAR ORIGINALE
LIML 182120Z VRB02KT CAVOK 08/05 Q1015 NOSIG



[ Indietro ]


Elaborazione dati by Datameteo.com - Lrc srl Copyright ©, All rights reserved.
Visualizza la versione web
©2010 Datameteo.com
weather mobile,mobile weather,meteo mobile,mobile meteo,meteo sul telefonino datameteo.com